sensor_id;sensor_type;location;lat;lon;timestamp;pressure;altitude;pressure_sealevel;temperature;humidity
6345;BME280;3205;42.666;23.264;2023-04-28T00:01:41;94631.44;;;5.59;nan
6345;BME280;3205;42.666;23.264;2023-04-28T00:04:08;94623.78;;;5.63;nan
6345;BME280;3205;42.666;23.264;2023-04-28T00:06:34;94637.09;;;5.53;nan
6345;BME280;3205;42.666;23.264;2023-04-28T00:09:00;94628.38;;;5.44;nan
6345;BME280;3205;42.666;23.264;2023-04-28T00:11:26;94637.13;;;5.39;nan
6345;BME280;3205;42.666;23.264;2023-04-28T00:13:52;94632.66;;;5.40;nan
6345;BME280;3205;42.666;23.264;2023-04-28T00:16:18;94634.44;;;5.31;nan
6345;BME280;3205;42.666;23.264;2023-04-28T00:18:44;94635.88;;;5.23;nan
6345;BME280;3205;42.666;23.264;2023-04-28T00:21:11;94627.81;;;5.20;nan
6345;BME280;3205;42.666;23.264;2023-04-28T00:23:37;94633.16;;;5.15;nan
6345;BME280;3205;42.666;23.264;2023-04-28T00:26:03;94630.94;;;5.22;nan
6345;BME280;3205;42.666;23.264;2023-04-28T00:28:30;94632.09;;;5.16;nan
6345;BME280;3205;42.666;23.264;2023-04-28T00:30:56;94631.13;;;5.12;nan
6345;BME280;3205;42.666;23.264;2023-04-28T00:33:22;94637.34;;;5.03;nan
6345;BME280;3205;42.666;23.264;2023-04-28T00:35:48;94635.63;;;4.98;nan
6345;BME280;3205;42.666;23.264;2023-04-28T00:38:15;94636.94;;;4.96;nan
6345;BME280;3205;42.666;23.264;2023-04-28T00:40:41;94639.28;;;4.97;nan
6345;BME280;3205;42.666;23.264;2023-04-28T00:43:07;94647.81;;;4.89;nan
6345;BME280;3205;42.666;23.264;2023-04-28T00:45:33;94651.31;;;4.85;nan
6345;BME280;3205;42.666;23.264;2023-04-28T00:48:01;94649.19;;;4.87;nan
6345;BME280;3205;42.666;23.264;2023-04-28T00:50:27;94653.44;;;4.83;nan
6345;BME280;3205;42.666;23.264;2023-04-28T00:52:53;94651.00;;;4.86;nan
6345;BME280;3205;42.666;23.264;2023-04-28T00:55:20;94652.38;;;4.84;nan
6345;BME280;3205;42.666;23.264;2023-04-28T00:57:47;94648.66;;;4.71;nan
6345;BME280;3205;42.666;23.264;2023-04-28T01:00:14;94646.63;;;4.68;nan
6345;BME280;3205;42.666;23.264;2023-04-28T01:02:41;94661.38;;;4.64;nan
6345;BME280;3205;42.666;23.264;2023-04-28T01:05:07;94653.78;;;4.63;nan
6345;BME280;3205;42.666;23.264;2023-04-28T01:07:34;94665.25;;;4.67;nan
6345;BME280;3205;42.666;23.264;2023-04-28T01:10:00;94657.69;;;4.65;nan
6345;BME280;3205;42.666;23.264;2023-04-28T01:12:26;94669.69;;;4.66;nan
6345;BME280;3205;42.666;23.264;2023-04-28T01:14:52;94653.22;;;4.66;nan
6345;BME280;3205;42.666;23.264;2023-04-28T01:17:19;94657.59;;;4.70;nan
6345;BME280;3205;42.666;23.264;2023-04-28T01:19:45;94658.88;;;4.73;nan
6345;BME280;3205;42.666;23.264;2023-04-28T01:22:11;94660.88;;;4.62;nan
6345;BME280;3205;42.666;23.264;2023-04-28T01:24:40;94665.31;;;4.62;nan
6345;BME280;3205;42.666;23.264;2023-04-28T01:27:06;94661.53;;;4.54;nan
6345;BME280;3205;42.666;23.264;2023-04-28T01:29:32;94658.44;;;4.52;nan
6345;BME280;3205;42.666;23.264;2023-04-28T01:32:00;94666.97;;;4.58;nan
6345;BME280;3205;42.666;23.264;2023-04-28T01:34:26;94662.50;;;4.58;nan
6345;BME280;3205;42.666;23.264;2023-04-28T01:36:52;94664.06;;;4.59;nan
6345;BME280;3205;42.666;23.264;2023-04-28T01:39:18;94662.91;;;4.52;nan
6345;BME280;3205;42.666;23.264;2023-04-28T01:41:45;94659.44;;;4.56;nan
6345;BME280;3205;42.666;23.264;2023-04-28T01:44:11;94655.91;;;4.47;nan
6345;BME280;3205;42.666;23.264;2023-04-28T01:46:37;94659.78;;;4.37;nan
6345;BME280;3205;42.666;23.264;2023-04-28T01:49:04;94663.78;;;4.29;nan
6345;BME280;3205;42.666;23.264;2023-04-28T01:51:30;94665.44;;;4.25;nan
6345;BME280;3205;42.666;23.264;2023-04-28T01:53:57;94657.09;;;4.23;nan
6345;BME280;3205;42.666;23.264;2023-04-28T01:56:23;94664.94;;;4.23;nan
6345;BME280;3205;42.666;23.264;2023-04-28T01:58:50;94665.53;;;4.20;nan
6345;BME280;3205;42.666;23.264;2023-04-28T02:01:16;94660.16;;;4.12;nan
6345;BME280;3205;42.666;23.264;2023-04-28T02:03:42;94656.56;;;4.08;nan
6345;BME280;3205;42.666;23.264;2023-04-28T02:06:08;94662.94;;;4.02;nan
6345;BME280;3205;42.666;23.264;2023-04-28T02:08:34;94666.91;;;3.99;nan
6345;BME280;3205;42.666;23.264;2023-04-28T02:11:00;94664.63;;;3.93;nan
6345;BME280;3205;42.666;23.264;2023-04-28T02:13:28;94663.66;;;3.89;nan
6345;BME280;3205;42.666;23.264;2023-04-28T02:15:55;94664.50;;;3.84;nan
6345;BME280;3205;42.666;23.264;2023-04-28T02:18:21;94674.38;;;3.87;nan
6345;BME280;3205;42.666;23.264;2023-04-28T02:20:48;94675.25;;;3.83;nan
6345;BME280;3205;42.666;23.264;2023-04-28T02:23:14;94668.03;;;3.75;nan
6345;BME280;3205;42.666;23.264;2023-04-28T02:25:40;94672.25;;;3.71;nan
6345;BME280;3205;42.666;23.264;2023-04-28T02:28:06;94677.56;;;3.66;nan
6345;BME280;3205;42.666;23.264;2023-04-28T02:30:32;94677.56;;;3.66;nan
6345;BME280;3205;42.666;23.264;2023-04-28T02:32:59;94675.72;;;3.66;nan
6345;BME280;3205;42.666;23.264;2023-04-28T02:35:25;94679.13;;;3.67;nan
6345;BME280;3205;42.666;23.264;2023-04-28T02:37:51;94679.69;;;3.64;nan
6345;BME280;3205;42.666;23.264;2023-04-28T02:40:17;94681.81;;;3.62;nan
6345;BME280;3205;42.666;23.264;2023-04-28T02:42:43;94680.25;;;3.61;nan
6345;BME280;3205;42.666;23.264;2023-04-28T02:45:12;94685.50;;;3.61;nan
6345;BME280;3205;42.666;23.264;2023-04-28T02:47:38;94686.97;;;3.67;nan
6345;BME280;3205;42.666;23.264;2023-04-28T02:50:06;94685.63;;;3.69;nan
6345;BME280;3205;42.666;23.264;2023-04-28T02:52:32;94684.66;;;3.66;nan
6345;BME280;3205;42.666;23.264;2023-04-28T02:54:59;94684.84;;;3.69;nan
6345;BME280;3205;42.666;23.264;2023-04-28T02:57:25;94689.72;;;3.75;nan
6345;BME280;3205;42.666;23.264;2023-04-28T02:59:51;94692.56;;;3.79;nan
6345;BME280;3205;42.666;23.264;2023-04-28T03:02:17;94687.09;;;3.94;nan
6345;BME280;3205;42.666;23.264;2023-04-28T03:04:44;94698.97;;;4.05;nan
6345;BME280;3205;42.666;23.264;2023-04-28T03:07:11;94696.97;;;4.15;nan
6345;BME280;3205;42.666;23.264;2023-04-28T03:09:37;94699.38;;;4.12;nan
6345;BME280;3205;42.666;23.264;2023-04-28T03:12:04;94700.03;;;4.04;nan
6345;BME280;3205;42.666;23.264;2023-04-28T03:14:30;94697.19;;;4.00;nan
6345;BME280;3205;42.666;23.264;2023-04-28T03:16:56;94701.97;;;3.98;nan
6345;BME280;3205;42.666;23.264;2023-04-28T03:19:22;94707.44;;;3.97;nan
6345;BME280;3205;42.666;23.264;2023-04-28T03:21:48;94711.69;;;3.93;nan
6345;BME280;3205;42.666;23.264;2023-04-28T03:24:15;94717.69;;;3.93;nan
6345;BME280;3205;42.666;23.264;2023-04-28T03:26:41;94717.78;;;3.88;nan
6345;BME280;3205;42.666;23.264;2023-04-28T03:29:07;94714.59;;;3.91;nan
6345;BME280;3205;42.666;23.264;2023-04-28T03:31:33;94723.94;;;3.97;nan
6345;BME280;3205;42.666;23.264;2023-04-28T03:33:59;94731.16;;;4.05;nan
6345;BME280;3205;42.666;23.264;2023-04-28T03:36:25;94738.50;;;4.03;nan
6345;BME280;3205;42.666;23.264;2023-04-28T03:38:52;94742.44;;;4.01;nan
6345;BME280;3205;42.666;23.264;2023-04-28T03:41:18;94742.78;;;4.13;nan
6345;BME280;3205;42.666;23.264;2023-04-28T03:43:45;94734.81;;;4.23;nan
6345;BME280;3205;42.666;23.264;2023-04-28T03:46:11;94743.22;;;4.38;nan
6345;BME280;3205;42.666;23.264;2023-04-28T03:48:37;94745.66;;;4.48;nan
6345;BME280;3205;42.666;23.264;2023-04-28T03:51:03;94749.19;;;4.57;nan
6345;BME280;3205;42.666;23.264;2023-04-28T03:53:29;94750.13;;;4.79;nan
6345;BME280;3205;42.666;23.264;2023-04-28T03:55:55;94754.53;;;4.97;nan
6345;BME280;3205;42.666;23.264;2023-04-28T03:58:22;94760.59;;;5.24;nan
6345;BME280;3205;42.666;23.264;2023-04-28T04:00:48;94763.13;;;5.43;nan
6345;BME280;3205;42.666;23.264;2023-04-28T04:03:14;94760.00;;;5.68;nan
6345;BME280;3205;42.666;23.264;2023-04-28T04:05:40;94764.78;;;5.92;nan
6345;BME280;3205;42.666;23.264;2023-04-28T04:08:06;94763.94;;;6.19;nan
6345;BME280;3205;42.666;23.264;2023-04-28T04:10:33;94769.09;;;6.59;nan
6345;BME280;3205;42.666;23.264;2023-04-28T04:12:59;94765.88;;;7.14;nan
6345;BME280;3205;42.666;23.264;2023-04-28T04:15:26;94767.56;;;7.88;nan
6345;BME280;3205;42.666;23.264;2023-04-28T04:17:52;94770.63;;;8.28;nan
6345;BME280;3205;42.666;23.264;2023-04-28T04:20:19;94770.19;;;8.69;nan
6345;BME280;3205;42.666;23.264;2023-04-28T04:22:45;94773.09;;;8.92;nan
6345;BME280;3205;42.666;23.264;2023-04-28T04:25:11;94785.94;;;9.28;nan
6345;BME280;3205;42.666;23.264;2023-04-28T04:27:37;94777.38;;;10.14;nan
6345;BME280;3205;42.666;23.264;2023-04-28T04:30:04;94777.28;;;10.92;nan
6345;BME280;3205;42.666;23.264;2023-04-28T04:32:32;94777.28;;;12.52;nan
6345;BME280;3205;42.666;23.264;2023-04-28T04:34:58;94779.97;;;14.87;nan
6345;BME280;3205;42.666;23.264;2023-04-28T04:37:24;94782.63;;;16.78;nan
6345;BME280;3205;42.666;23.264;2023-04-28T04:39:50;94785.09;;;18.89;nan
6345;BME280;3205;42.666;23.264;2023-04-28T04:42:16;94778.28;;;20.74;nan
6345;BME280;3205;42.666;23.264;2023-04-28T04:44:42;94789.97;;;22.31;nan
6345;BME280;3205;42.666;23.264;2023-04-28T04:47:08;94791.22;;;23.44;nan
6345;BME280;3205;42.666;23.264;2023-04-28T04:49:37;94792.47;;;24.25;nan
6345;BME280;3205;42.666;23.264;2023-04-28T04:52:03;94802.91;;;25.22;nan
6345;BME280;3205;42.666;23.264;2023-04-28T04:54:31;94801.28;;;25.66;nan
6345;BME280;3205;42.666;23.264;2023-04-28T04:56:57;94801.78;;;26.16;nan
6345;BME280;3205;42.666;23.264;2023-04-28T04:59:23;94812.22;;;27.01;nan
6345;BME280;3205;42.666;23.264;2023-04-28T05:01:49;94810.16;;;27.65;nan
6345;BME280;3205;42.666;23.264;2023-04-28T05:04:15;94810.97;;;28.56;nan
6345;BME280;3205;42.666;23.264;2023-04-28T05:06:42;94817.06;;;27.94;nan
6345;BME280;3205;42.666;23.264;2023-04-28T05:09:08;94815.56;;;28.18;nan
6345;BME280;3205;42.666;23.264;2023-04-28T05:11:34;94816.09;;;27.88;nan
6345;BME280;3205;42.666;23.264;2023-04-28T05:14:01;94813.25;;;28.57;nan
6345;BME280;3205;42.666;23.264;2023-04-28T05:16:27;94819.56;;;29.37;nan
6345;BME280;3205;42.666;23.264;2023-04-28T05:18:53;94816.56;;;29.78;nan
6345;BME280;3205;42.666;23.264;2023-04-28T05:21:19;94820.41;;;30.32;nan
6345;BME280;3205;42.666;23.264;2023-04-28T05:23:46;94827.25;;;29.51;nan
6345;BME280;3205;42.666;23.264;2023-04-28T05:26:12;94825.94;;;29.56;nan
6345;BME280;3205;42.666;23.264;2023-04-28T05:28:38;94826.66;;;30.12;nan
6345;BME280;3205;42.666;23.264;2023-04-28T05:31:05;94822.63;;;30.94;nan
6345;BME280;3205;42.666;23.264;2023-04-28T05:33:31;94823.56;;;31.75;nan
6345;BME280;3205;42.666;23.264;2023-04-28T05:35:57;94822.50;;;31.64;nan
6345;BME280;3205;42.666;23.264;2023-04-28T05:38:23;94828.41;;;31.63;nan
6345;BME280;3205;42.666;23.264;2023-04-28T05:40:50;94824.91;;;32.07;nan
6345;BME280;3205;42.666;23.264;2023-04-28T05:43:16;94823.03;;;32.22;nan
6345;BME280;3205;42.666;23.264;2023-04-28T05:45:43;94809.63;;;32.83;nan
6345;BME280;3205;42.666;23.264;2023-04-28T05:48:09;94818.34;;;33.51;nan
6345;BME280;3205;42.666;23.264;2023-04-28T05:50:35;94827.25;;;33.46;nan
6345;BME280;3205;42.666;23.264;2023-04-28T05:53:01;94813.59;;;33.05;nan
6345;BME280;3205;42.666;23.264;2023-04-28T05:55:28;94820.09;;;34.01;nan
6345;BME280;3205;42.666;23.264;2023-04-28T05:57:55;94820.59;;;33.62;nan
6345;BME280;3205;42.666;23.264;2023-04-28T06:00:21;94822.22;;;32.48;nan
6345;BME280;3205;42.666;23.264;2023-04-28T06:02:47;94830.84;;;32.97;nan
6345;BME280;3205;42.666;23.264;2023-04-28T06:05:13;94819.72;;;33.32;nan
6345;BME280;3205;42.666;23.264;2023-04-28T06:07:39;94824.88;;;33.77;nan
6345;BME280;3205;42.666;23.264;2023-04-28T06:10:06;94829.81;;;33.50;nan
6345;BME280;3205;42.666;23.264;2023-04-28T06:12:32;94820.59;;;33.15;nan
6345;BME280;3205;42.666;23.264;2023-04-28T06:14:59;94824.22;;;33.82;nan
6345;BME280;3205;42.666;23.264;2023-04-28T06:17:25;94816.53;;;33.48;nan
6345;BME280;3205;42.666;23.264;2023-04-28T06:19:51;94826.31;;;32.43;nan
6345;BME280;3205;42.666;23.264;2023-04-28T06:22:18;94826.84;;;32.24;nan
6345;BME280;3205;42.666;23.264;2023-04-28T06:24:45;94825.59;;;33.40;nan
6345;BME280;3205;42.666;23.264;2023-04-28T06:27:12;94825.06;;;33.50;nan
6345;BME280;3205;42.666;23.264;2023-04-28T06:29:38;94826.97;;;32.80;nan
6345;BME280;3205;42.666;23.264;2023-04-28T06:32:05;94827.91;;;31.19;nan
6345;BME280;3205;42.666;23.264;2023-04-28T06:34:33;94828.22;;;32.20;nan
6345;BME280;3205;42.666;23.264;2023-04-28T06:36:59;94821.50;;;31.13;nan
6345;BME280;3205;42.666;23.264;2023-04-28T06:39:25;94813.16;;;30.38;nan
6345;BME280;3205;42.666;23.264;2023-04-28T06:41:51;94815.75;;;30.72;nan
6345;BME280;3205;42.666;23.264;2023-04-28T06:44:18;94821.38;;;31.26;nan
6345;BME280;3205;42.666;23.264;2023-04-28T06:46:44;94808.16;;;31.33;nan
6345;BME280;3205;42.666;23.264;2023-04-28T06:49:11;94812.44;;;31.61;nan
6345;BME280;3205;42.666;23.264;2023-04-28T06:51:37;94820.22;;;30.96;nan
6345;BME280;3205;42.666;23.264;2023-04-28T06:54:03;94823.69;;;31.45;nan
6345;BME280;3205;42.666;23.264;2023-04-28T06:56:29;94816.25;;;31.72;nan
6345;BME280;3205;42.666;23.264;2023-04-28T06:58:55;94813.19;;;31.35;nan
6345;BME280;3205;42.666;23.264;2023-04-28T07:01:21;94814.13;;;31.67;nan
6345;BME280;3205;42.666;23.264;2023-04-28T07:03:47;94808.28;;;33.34;nan
6345;BME280;3205;42.666;23.264;2023-04-28T07:06:14;94814.75;;;33.69;nan
6345;BME280;3205;42.666;23.264;2023-04-28T07:08:43;94817.88;;;33.53;nan
6345;BME280;3205;42.666;23.264;2023-04-28T07:11:09;94806.91;;;33.76;nan
6345;BME280;3205;42.666;23.264;2023-04-28T07:13:35;94805.00;;;33.82;nan
6345;BME280;3205;42.666;23.264;2023-04-28T07:16:01;94812.94;;;33.42;nan
6345;BME280;3205;42.666;23.264;2023-04-28T07:18:27;94804.09;;;34.72;nan
6345;BME280;3205;42.666;23.264;2023-04-28T07:20:53;94808.22;;;35.30;nan
6345;BME280;3205;42.666;23.264;2023-04-28T07:23:20;94810.25;;;36.15;nan
6345;BME280;3205;42.666;23.264;2023-04-28T07:25:46;94803.28;;;35.54;nan
6345;BME280;3205;42.666;23.264;2023-04-28T07:28:12;94807.81;;;36.47;nan
6345;BME280;3205;42.666;23.264;2023-04-28T07:30:38;94801.97;;;37.38;nan
6345;BME280;3205;42.666;23.264;2023-04-28T07:33:04;94795.44;;;37.41;nan
6345;BME280;3205;42.666;23.264;2023-04-28T07:35:31;94797.41;;;35.86;nan
6345;BME280;3205;42.666;23.264;2023-04-28T07:37:57;94797.00;;;33.93;nan
6345;BME280;3205;42.666;23.264;2023-04-28T07:40:24;94803.63;;;34.73;nan
6345;BME280;3205;42.666;23.264;2023-04-28T07:42:50;94806.03;;;35.74;nan
6345;BME280;3205;42.666;23.264;2023-04-28T07:45:16;94797.81;;;37.17;nan
6345;BME280;3205;42.666;23.264;2023-04-28T07:47:42;94793.22;;;37.03;nan
6345;BME280;3205;42.666;23.264;2023-04-28T07:50:10;94799.28;;;36.76;nan
6345;BME280;3205;42.666;23.264;2023-04-28T07:52:36;94798.28;;;36.79;nan
6345;BME280;3205;42.666;23.264;2023-04-28T07:55:03;94789.94;;;35.27;nan
6345;BME280;3205;42.666;23.264;2023-04-28T07:57:29;94788.63;;;32.80;nan
6345;BME280;3205;42.666;23.264;2023-04-28T07:59:56;94788.75;;;33.79;nan
6345;BME280;3205;42.666;23.264;2023-04-28T08:02:22;94794.72;;;35.12;nan
6345;BME280;3205;42.666;23.264;2023-04-28T08:04:48;94797.72;;;36.70;nan
6345;BME280;3205;42.666;23.264;2023-04-28T08:07:14;94802.31;;;35.97;nan
6345;BME280;3205;42.666;23.264;2023-04-28T08:09:40;94790.88;;;33.37;nan
6345;BME280;3205;42.666;23.264;2023-04-28T08:12:09;94792.66;;;34.93;nan
6345;BME280;3205;42.666;23.264;2023-04-28T08:14:36;94788.41;;;34.43;nan
6345;BME280;3205;42.666;23.264;2023-04-28T08:17:03;94787.66;;;35.06;nan
6345;BME280;3205;42.666;23.264;2023-04-28T08:19:29;94794.78;;;34.06;nan
6345;BME280;3205;42.666;23.264;2023-04-28T08:21:55;94796.25;;;34.36;nan
6345;BME280;3205;42.666;23.264;2023-04-28T08:24:21;94789.56;;;32.77;nan
6345;BME280;3205;42.666;23.264;2023-04-28T08:26:47;94789.88;;;29.95;nan
6345;BME280;3205;42.666;23.264;2023-04-28T08:29:13;94787.66;;;28.55;nan
6345;BME280;3205;42.666;23.264;2023-04-28T08:31:40;94785.28;;;28.19;nan
6345;BME280;3205;42.666;23.264;2023-04-28T08:34:06;94786.34;;;26.80;nan
6345;BME280;3205;42.666;23.264;2023-04-28T08:36:32;94786.94;;;27.76;nan
6345;BME280;3205;42.666;23.264;2023-04-28T08:38:59;94780.69;;;29.25;nan
6345;BME280;3205;42.666;23.264;2023-04-28T08:41:31;94783.03;;;27.77;nan
6345;BME280;3205;42.666;23.264;2023-04-28T08:43:57;94773.25;;;27.92;nan
6345;BME280;3205;42.666;23.264;2023-04-28T08:46:26;94779.09;;;27.78;nan
6345;BME280;3205;42.666;23.264;2023-04-28T08:48:58;94776.41;;;27.90;nan
6345;BME280;3205;42.666;23.264;2023-04-28T08:51:32;94787.19;;;27.09;nan
6345;BME280;3205;42.666;23.264;2023-04-28T08:53:58;94768.47;;;27.83;nan
6345;BME280;3205;42.666;23.264;2023-04-28T08:56:31;94776.03;;;28.79;nan
6345;BME280;3205;42.666;23.264;2023-04-28T08:59:01;94770.41;;;27.55;nan
6345;BME280;3205;42.666;23.264;2023-04-28T09:01:27;94766.53;;;28.58;nan
6345;BME280;3205;42.666;23.264;2023-04-28T09:03:53;94762.44;;;29.13;nan
6345;BME280;3205;42.666;23.264;2023-04-28T09:06:20;94765.84;;;29.59;nan
6345;BME280;3205;42.666;23.264;2023-04-28T09:08:47;94766.72;;;30.29;nan
6345;BME280;3205;42.666;23.264;2023-04-28T09:11:13;94764.59;;;31.12;nan
6345;BME280;3205;42.666;23.264;2023-04-28T09:13:41;94755.25;;;32.17;nan
6345;BME280;3205;42.666;23.264;2023-04-28T09:16:07;94760.25;;;32.27;nan
6345;BME280;3205;42.666;23.264;2023-04-28T09:18:33;94753.84;;;30.60;nan
6345;BME280;3205;42.666;23.264;2023-04-28T09:21:04;94749.56;;;29.68;nan
6345;BME280;3205;42.666;23.264;2023-04-28T09:23:30;94749.06;;;28.47;nan
6345;BME280;3205;42.666;23.264;2023-04-28T09:25:59;94738.34;;;27.90;nan
6345;BME280;3205;42.666;23.264;2023-04-28T09:28:25;94744.94;;;28.43;nan
6345;BME280;3205;42.666;23.264;2023-04-28T09:30:51;94742.56;;;28.91;nan
6345;BME280;3205;42.666;23.264;2023-04-28T09:33:17;94733.91;;;29.81;nan
6345;BME280;3205;42.666;23.264;2023-04-28T09:35:44;94731.41;;;29.96;nan
6345;BME280;3205;42.666;23.264;2023-04-28T09:38:12;94726.13;;;30.31;nan
6345;BME280;3205;42.666;23.264;2023-04-28T09:40:56;94724.50;;;31.45;nan
6345;BME280;3205;42.666;23.264;2023-04-28T09:43:30;94724.69;;;29.88;20.87
6345;BME280;3205;42.666;23.264;2023-04-28T09:45:58;94721.81;;;29.39;20.97
6345;BME280;3205;42.666;23.264;2023-04-28T09:48:29;94725.63;;;29.08;21.62
6345;BME280;3205;42.666;23.264;2023-04-28T09:50:55;94719.28;;;27.25;21.68
6345;BME280;3205;42.666;23.264;2023-04-28T09:53:22;94713.66;;;24.99;23.95
6345;BME280;3205;42.666;23.264;2023-04-28T09:55:49;94727.66;;;22.69;25.85
6345;BME280;3205;42.666;23.264;2023-04-28T09:58:18;94711.00;;;21.19;27.53
6345;BME280;3205;42.666;23.264;2023-04-28T10:00:51;94716.09;;;20.79;28.56
6345;BME280;3205;42.666;23.264;2023-04-28T10:03:22;94719.63;;;20.06;31.61
6345;BME280;3205;42.666;23.264;2023-04-28T10:05:49;94712.72;;;20.12;30.36
6345;BME280;3205;42.666;23.264;2023-04-28T10:08:18;94701.63;;;20.03;30.23
6345;BME280;3205;42.666;23.264;2023-04-28T10:10:44;94692.41;;;19.90;29.24
6345;BME280;3205;42.666;23.264;2023-04-28T10:13:11;94689.56;;;19.14;30.63
6345;BME280;3205;42.666;23.264;2023-04-28T10:15:38;94695.06;;;18.63;31.69
6345;BME280;3205;42.666;23.264;2023-04-28T10:18:05;94693.75;;;18.33;31.57
6345;BME280;3205;42.666;23.264;2023-04-28T10:20:32;94691.75;;;18.23;32.13
6345;BME280;3205;42.666;23.264;2023-04-28T10:23:16;94688.72;;;18.32;31.98
6345;BME280;3205;42.666;23.264;2023-04-28T10:25:54;94692.72;;;18.59;31.98
6345;BME280;3205;42.666;23.264;2023-04-28T10:28:22;94691.00;;;18.26;31.63
6345;BME280;3205;42.666;23.264;2023-04-28T10:31:10;94682.09;;;18.15;31.85
6345;BME280;3205;42.666;23.264;2023-04-28T10:33:37;94682.34;;;17.96;32.61
6345;BME280;3205;42.666;23.264;2023-04-28T10:36:04;94677.22;;;17.74;33.33
6345;BME280;3205;42.666;23.264;2023-04-28T10:38:32;94671.50;;;17.36;32.82
6345;BME280;3205;42.666;23.264;2023-04-28T10:40:58;94673.06;;;16.71;32.91
6345;BME280;3205;42.666;23.264;2023-04-28T10:43:35;94666.53;;;16.39;33.38
6345;BME280;3205;42.666;23.264;2023-04-28T10:46:05;94663.91;;;16.17;34.08
6345;BME280;3205;42.666;23.264;2023-04-28T10:49:05;94661.19;;;16.14;34.75
6345;BME280;3205;42.666;23.264;2023-04-28T10:51:32;94659.81;;;16.23;33.66
6345;BME280;3205;42.666;23.264;2023-04-28T10:54:17;94645.03;;;16.03;33.84
6345;BME280;3205;42.666;23.264;2023-04-28T10:57:18;94661.06;;;16.29;34.42
6345;BME280;3205;42.666;23.264;2023-04-28T10:59:44;94644.44;;;16.39;35.31
6345;BME280;3205;42.666;23.264;2023-04-28T11:02:36;94643.28;;;16.69;36.88
6345;BME280;3205;42.666;23.264;2023-04-28T11:05:11;94642.50;;;16.69;34.55
6345;BME280;3205;42.666;23.264;2023-04-28T11:07:37;94635.31;;;16.18;35.52
6345;BME280;3205;42.666;23.264;2023-04-28T11:10:04;94641.59;;;15.77;37.04
6345;BME280;3205;42.666;23.264;2023-04-28T11:12:31;94640.69;;;15.92;37.06
6345;BME280;3205;42.666;23.264;2023-04-28T11:15:10;94641.41;;;16.15;37.93
6345;BME280;3205;42.666;23.264;2023-04-28T11:17:39;94640.06;;;16.28;34.78
6345;BME280;3205;42.666;23.264;2023-04-28T11:20:11;94638.31;;;16.38;34.78
6345;BME280;3205;42.666;23.264;2023-04-28T11:22:37;94631.28;;;16.27;34.64
6345;BME280;3205;42.666;23.264;2023-04-28T11:25:04;94637.38;;;16.28;35.38
6345;BME280;3205;42.666;23.264;2023-04-28T11:27:32;94635.22;;;16.33;35.49
6345;BME280;3205;42.666;23.264;2023-04-28T11:29:58;94634.09;;;16.34;36.60
6345;BME280;3205;42.666;23.264;2023-04-28T11:32:26;94621.03;;;16.29;35.26
6345;BME280;3205;42.666;23.264;2023-04-28T11:34:53;94625.97;;;16.27;37.63
6345;BME280;3205;42.666;23.264;2023-04-28T11:37:19;94618.19;;;16.44;36.38
6345;BME280;3205;42.666;23.264;2023-04-28T11:39:47;94620.63;;;16.56;35.54
6345;BME280;3205;42.666;23.264;2023-04-28T11:42:14;94622.13;;;16.54;35.64
6345;BME280;3205;42.666;23.264;2023-04-28T11:44:48;94614.63;;;16.66;35.64
6345;BME280;3205;42.666;23.264;2023-04-28T11:47:14;94615.94;;;16.79;34.95
6345;BME280;3205;42.666;23.264;2023-04-28T11:49:42;94612.72;;;16.63;33.60
6345;BME280;3205;42.666;23.264;2023-04-28T11:52:09;94610.88;;;16.71;34.71
6345;BME280;3205;42.666;23.264;2023-04-28T11:54:37;94616.59;;;16.69;34.74
6345;BME280;3205;42.666;23.264;2023-04-28T11:57:04;94614.59;;;16.63;33.35
6345;BME280;3205;42.666;23.264;2023-04-28T11:59:32;94606.63;;;16.66;34.16
6345;BME280;3205;42.666;23.264;2023-04-28T12:02:00;94604.34;;;16.65;33.80
6345;BME280;3205;42.666;23.264;2023-04-28T12:04:29;94605.03;;;16.62;35.32
6345;BME280;3205;42.666;23.264;2023-04-28T12:07:01;94605.16;;;16.72;34.71
6345;BME280;3205;42.666;23.264;2023-04-28T12:09:28;94605.88;;;16.66;34.69
6345;BME280;3205;42.666;23.264;2023-04-28T12:11:56;94604.56;;;16.24;35.06
6345;BME280;3205;42.666;23.264;2023-04-28T12:14:22;94587.41;;;15.95;35.54
6345;BME280;3205;42.666;23.264;2023-04-28T12:16:48;94591.84;;;15.84;35.82
6345;BME280;3205;42.666;23.264;2023-04-28T12:19:16;94587.16;;;15.78;35.74
6345;BME280;3205;42.666;23.264;2023-04-28T12:21:43;94590.03;;;15.66;35.57
6345;BME280;3205;42.666;23.264;2023-04-28T12:24:16;94585.88;;;15.68;36.42
6345;BME280;3205;42.666;23.264;2023-04-28T12:26:43;94585.88;;;15.94;37.04
6345;BME280;3205;42.666;23.264;2023-04-28T12:29:39;94579.41;;;16.25;34.45
6345;BME280;3205;42.666;23.264;2023-04-28T12:32:06;94577.16;;;16.27;34.67
6345;BME280;3205;42.666;23.264;2023-04-28T12:34:33;94572.72;;;16.34;34.88
6345;BME280;3205;42.666;23.264;2023-04-28T12:37:00;94566.22;;;16.35;35.36
6345;BME280;3205;42.666;23.264;2023-04-28T12:39:26;94561.34;;;16.40;34.90
6345;BME280;3205;42.666;23.264;2023-04-28T12:41:53;94567.19;;;16.20;34.19
6345;BME280;3205;42.666;23.264;2023-04-28T12:44:21;94570.78;;;16.05;35.30
6345;BME280;3205;42.666;23.264;2023-04-28T12:46:47;94560.56;;;16.11;36.00
6345;BME280;3205;42.666;23.264;2023-04-28T12:49:13;94558.91;;;15.99;36.05
6345;BME280;3205;42.666;23.264;2023-04-28T12:51:40;94550.97;;;16.03;36.65
6345;BME280;3205;42.666;23.264;2023-04-28T12:54:06;94558.41;;;16.20;35.35
6345;BME280;3205;42.666;23.264;2023-04-28T12:56:32;94549.13;;;16.10;35.60
6345;BME280;3205;42.666;23.264;2023-04-28T12:58:58;94546.44;;;16.07;35.84
6345;BME280;3205;42.666;23.264;2023-04-28T13:01:29;94548.69;;;16.05;35.66
6345;BME280;3205;42.666;23.264;2023-04-28T13:03:55;94548.47;;;16.17;36.23
6345;BME280;3205;42.666;23.264;2023-04-28T13:06:21;94540.84;;;16.19;36.56
6345;BME280;3205;42.666;23.264;2023-04-28T13:08:48;94535.19;;;16.20;36.12
6345;BME280;3205;42.666;23.264;2023-04-28T13:11:14;94534.19;;;16.02;37.28
6345;BME280;3205;42.666;23.264;2023-04-28T13:13:40;94539.56;;;16.06;37.74
6345;BME280;3205;42.666;23.264;2023-04-28T13:16:07;94540.34;;;16.06;37.49
6345;BME280;3205;42.666;23.264;2023-04-28T13:18:34;94533.50;;;16.09;36.26
6345;BME280;3205;42.666;23.264;2023-04-28T13:21:00;94532.91;;;15.93;36.77
6345;BME280;3205;42.666;23.264;2023-04-28T13:23:26;94532.59;;;15.98;37.31
6345;BME280;3205;42.666;23.264;2023-04-28T13:25:52;94531.47;;;15.99;36.80
6345;BME280;3205;42.666;23.264;2023-04-28T13:28:18;94530.75;;;16.02;36.88
6345;BME280;3205;42.666;23.264;2023-04-28T13:30:44;94533.56;;;16.12;37.26